Volcan De Tamasite — ECFE — position and weather

sailwx.info

Track history (hours):
 
Tides and Currents Weather Stations Pressure Air Temp Water Temp Dewpoint Dewpoint Depression Visibility Wind Speed Wind Dir Waves Ship Positions

Volcan De Tamasite

Last reported at 2017-Jan-20 21:28 UTC. Time now 2017-Jan-21 00:14 UTC.
Position N 28°22' W 015°53'.

Length 141 m; draft 5.4 m.

Type: Passenger vessel. MMSI: 224093000.

Date/timePositionNaut miles runAvg speedWind from/ knotsBaromVisibWave heightAir tempDewpointWater temp
2017-Jan-20 21:28N 28°22' W 015°53'1819.9
2017-Jan-20 20:33N 28°15' W 015°34'1110.7
2017-Jan-20 19:33N 28°10' W 015°24'4 3.9
2017-Jan-20 18:33N 28°08' W 015°20'2020.4
2017-Jan-20 17:33N 28°05' W 014°57'2120.7
2017-Jan-20 16:33N 28°02' W 014°34'1110.5
2017-Jan-20 15:33N 28°03' W 014°22'0 0.0
2017-Jan-20 14:29N 28°03' W 014°22'0 0.2
2017-Jan-20 13:30N 28°03' W 014°22'1819.1
2017-Jan-20 12:33N 28°03' W 014°43'2120.7
2017-Jan-20 11:33N 28°06' W 015°06'1616.3
2017-Jan-20 10:33N 28°10' W 015°24'7 7.4
2017-Jan-20 09:33N 28°14' W 015°31'2121.1
2017-Jan-20 08:33N 28°22' W 015°53'20 2.2
2017-Jan-19 23:11N 28°28' W 016°15'2716.6
2017-Jan-19 21:33N 28°19' W 015°46'2019.8
2017-Jan-19 20:33N 28°12' W 015°25'2 2.4
2017-Jan-19 19:33N 28°10' W 015°24'3 2.6
2017-Jan-19 18:33N 28°12' W 015°25'2120.8
2017-Jan-19 17:33N 28°19' W 015°47'2220.7
2017-Jan-19 16:30N 28°27' W 016°10'24 8.0
2017-Jan-19 13:33N 28°20' W 015°45'2020.0
2017-Jan-19 12:33N 28°17' W 015°22'8 7.7
2017-Jan-19 11:34N 28°10' W 015°24'0 0.1
2017-Jan-19 10:34N 28°09' W 015°24'1010.0
2017-Jan-19 09:33N 28°18' W 015°31'2121.1
2017-Jan-19 08:33N 28°23' W 015°54'19 1.9
2017-Jan-18 22:32N 28°29' W 016°14'2319.0
2017-Jan-18 21:18N 28°20' W 015°50'1520.1
2017-Jan-18 20:33N 28°15' W 015°34'1010.1
2017-Jan-18 19:33N 28°10' W 015°24'3 2.8
2017-Jan-18 18:34N 28°08' W 015°21'2120.7
2017-Jan-18 17:34N 28°05' W 014°58'2121.0
2017-Jan-18 16:33N 28°02' W 014°34'1110.7
2017-Jan-18 15:31N 28°03' W 014°22'0 0.0
2017-Jan-18 14:32N 28°03' W 014°22'0 0.0
2017-Jan-18 13:21N 28°03' W 014°22'0 0.0
2017-Jan-18 12:29N 28°03' W 014°22'0 0.0
2017-Jan-18 11:33N 28°03' W 014°22'7 6.2
2017-Jan-18 10:26N 28°02' W 014°29'0 0.0
2017-Jan-17 16:21N 28°02' W 014°29'7 8.5
2017-Jan-17 15:33N 28°03' W 014°22'0 0.0
2017-Jan-17 14:33N 28°03' W 014°22'0 0.0
2017-Jan-17 13:33N 28°03' W 014°22'0 0.0
2017-Jan-17 12:33N 28°03' W 014°22'0 0.0
2017-Jan-17 11:33N 28°03' W 014°22'8 7.4
2017-Jan-17 10:26N 28°01' W 014°31'1820.3
2017-Jan-17 09:33N 28°04' W 014°51'2020.3
2017-Jan-17 08:33N 28°06' W 015°14'10 9.9
2017-Jan-17 07:33N 28°08' W 015°25'0 0.0
2017-Jan-17 06:33N 28°08' W 015°25'0 0.0
2017-Jan-17 05:33N 28°08' W 015°25'0 0.0
2017-Jan-17 04:33N 28°08' W 015°25'0 0.0
2017-Jan-17 03:33N 28°08' W 015°25'0 0.0
2017-Jan-17 02:33N 28°08' W 015°25'0 0.0
2017-Jan-17 01:33N 28°08' W 015°25'0 0.0
2017-Jan-17 00:33N 28°08' W 015°25'0 0.0
2017-Jan-16 23:33N 28°08' W 015°25'0 0.0
2017-Jan-16 22:33N 28°08' W 015°25'0 0.0
2017-Jan-16 21:33N 28°08' W 015°25'0 0.0
2017-Jan-16 20:33N 28°08' W 015°25'0 0.0
2017-Jan-16 19:33N 28°08' W 015°25'3 3.2
2017-Jan-16 18:33N 28°07' W 015°22'2121.0
2017-Jan-16 17:33N 28°05' W 014°58'2120.9
2017-Jan-16 16:33N 28°02' W 014°34'1111.2
2017-Jan-16 15:33N 28°03' W 014°22'0 0.0
2017-Jan-16 14:32N 28°03' W 014°22'0 0.0
2017-Jan-16 13:20N 28°03' W 014°22'0 0.0
2017-Jan-16 11:29N 28°03' W 014°22'10 9.9
2017-Jan-16 10:28N 28°02' W 014°33'1820.2
2017-Jan-16 09:33N 28°04' W 014°54'2019.9
2017-Jan-16 08:33N 28°06' W 015°16'8 7.9
2017-Jan-16 07:33N 28°08' W 015°25'0 0.0
2017-Jan-16 06:33N 28°08' W 015°25'0 0.0
2017-Jan-16 05:33N 28°08' W 015°25'0 0.0
2017-Jan-16 04:33N 28°08' W 015°25'0 0.0
2017-Jan-16 03:33N 28°08' W 015°25'0 0.0
2017-Jan-16 02:33N 28°08' W 015°25'0 0.0
2017-Jan-16 01:33N 28°08' W 015°25'0 0.0
2017-Jan-16 00:33N 28°08' W 015°25'0 0.0
2017-Jan-15 23:33N 28°08' W 015°25'0 0.0
2017-Jan-15 22:33N 28°08' W 015°25'0 0.0
2017-Jan-15 21:33N 28°08' W 015°25'1414.2
2017-Jan-15 20:33N 28°05' W 015°09'2120.7
2017-Jan-15 19:33N 28°03' W 014°46'2020.5
2017-Jan-15 18:33N 28°03' W 014°23'1 0.7
2017-Jan-15 17:30N 28°03' W 014°22'8 8.3
2017-Jan-15 16:30N 28°02' W 014°31'1920.3
2017-Jan-15 15:33N 28°04' W 014°53'2019.9
2017-Jan-15 14:33N 28°06' W 015°15'9 8.8
2017-Jan-15 13:33N 28°08' W 015°25'0 0.0
2017-Jan-15 12:34N 28°08' W 015°25'0 0.0
2017-Jan-15 11:33N 28°08' W 015°25'2 1.8
2017-Jan-15 10:33N 28°09' W 015°23'1919.3
2017-Jan-15 09:34N 28°18' W 015°43'2020.0
2017-Jan-15 08:34N 28°25' W 016°04'16 1.4
2017-Jan-14 21:17N 28°19' W 015°47'1520.6
2017-Jan-14 20:33N 28°14' W 015°31'8 7.9
2017-Jan-14 19:33N 28°10' W 015°24'2 2.2
2017-Jan-14 18:33N 28°08' W 015°22'2121.4
2017-Jan-14 17:33N 28°05' W 014°58'2121.0
2017-Jan-14 16:33N 28°02' W 014°34'1110.9
2017-Jan-14 15:32N 28°03' W 014°22'0 0.0
2017-Jan-14 14:33N 28°03' W 014°22'8 6.7
2017-Jan-14 13:23N 28°02' W 014°31'1720.3
2017-Jan-14 12:33N 28°04' W 014°49'2020.2
2017-Jan-14 11:33N 28°07' W 015°12'1110.7
2017-Jan-14 10:33N 28°10' W 015°24'1312.9
2017-Jan-14 09:33N 28°16' W 015°37'2120.6
2017-Jan-14 08:33N 28°23' W 015°58'1514.6
2017-Jan-14 07:32N 28°28' W 016°15'0 0.0
2017-Jan-14 05:03N 28°28' W 016°15'0 0.0
2017-Jan-14 04:24N 28°28' W 016°15'0 0.0
2017-Jan-14 03:28N 28°28' W 016°15'0 0.0
2017-Jan-13 23:33N 28°28' W 016°15'21 9.5
2017-Jan-13 21:20N 28°21' W 015°52'1620.5
2017-Jan-13 20:33N 28°15' W 015°35'1211.6
2017-Jan-13 19:33N 28°10' W 015°24'3 2.7
2017-Jan-13 18:33N 28°08' W 015°21'2120.9
2017-Jan-13 17:33N 28°05' W 014°58'2120.7
2017-Jan-13 16:33N 28°02' W 014°35'1111.2
2017-Jan-13 15:33N 28°03' W 014°22'0 0.0
2017-Jan-13 14:25N 28°03' W 014°22'8 7.3
2017-Jan-13 13:22N 28°02' W 014°30'1620.4
2017-Jan-13 12:34N 28°04' W 014°49'2019.9
2017-Jan-13 11:34N 28°07' W 015°11'1211.5
2017-Jan-13 10:33N 28°10' W 015°24'8 8.2
2017-Jan-13 09:34N 28°14' W 015°32'2020.2
2017-Jan-13 08:33N 28°22' W 015°53'5 0.5
2017-Jan-12 21:34N 28°20' W 015°47'2020.0
2017-Jan-12 20:34N 28°12' W 015°26'4 3.5
2017-Jan-12 19:33N 28°10' W 015°24'1 1.1
2017-Jan-12 18:33N 28°11' W 015°24'1919.5
2017-Jan-12 17:33N 28°18' W 015°44'2020.0
2017-Jan-12 16:33N 28°26' W 016°05'9 6.3
2017-Jan-12 15:08N 28°28' W 016°15'4813.3
2017-Jan-12 11:30N 28°10' W 015°24'0 0.0
2017-Jan-12 10:33N 28°10' W 015°24'8 8.0
2017-Jan-12 09:33N 28°14' W 015°31'2020.3
2017-Jan-12 08:33N 28°21' W 015°53'2020.0
2017-Jan-12 07:33N 28°29' W 016°14'1 0.8
2017-Jan-12 06:29N 28°28' W 016°15'0 0.0
2017-Jan-12 05:30N 28°28' W 016°15'0 0.0
2017-Jan-12 04:29N 28°28' W 016°15'0 0.0
2017-Jan-12 02:24N 28°28' W 016°15'0 0.0
2017-Jan-12 01:21N 28°28' W 016°15'0 0.0
2017-Jan-12 00:26N 28°28' W 016°15'0 0.0
2017-Jan-11 23:32N 28°28' W 016°15'20 9.8
2017-Jan-11 21:28N 28°21' W 015°53'1820.0
2017-Jan-11 20:34N 28°15' W 015°34'1010.3
2017-Jan-11 19:33N 28°10' W 015°24'3 3.4
2017-Jan-11 18:33N 28°08' W 015°20'2120.8
2017-Jan-11 17:33N 28°05' W 014°57'2020.3
2017-Jan-11 16:33N 28°02' W 014°34'1110.9
2017-Jan-11 15:32N 28°03' W 014°22'0 0.0
2017-Jan-11 14:31N 28°03' W 014°22'0 0.0
2017-Jan-11 13:33N 28°03' W 014°22'0 0.0
2017-Jan-11 12:30N 28°03' W 014°22'0 0.0
2017-Jan-11 11:31N 28°03' W 014°22'8 8.1
2017-Jan-11 10:33N 28°02' W 014°31'2019.7
2017-Jan-11 09:33N 28°04' W 014°53'2019.9
2017-Jan-11 08:33N 28°06' W 015°15'9 8.8
2017-Jan-11 07:33N 28°08' W 015°25'0 0.0
2017-Jan-11 06:33N 28°08' W 015°25'0 0.0
2017-Jan-11 05:33N 28°08' W 015°25'0 0.0
2017-Jan-11 04:33N 28°08' W 015°25'0 0.0
2017-Jan-11 03:33N 28°08' W 015°25'0 0.0
2017-Jan-11 02:33N 28°08' W 015°25'0 0.0
2017-Jan-11 01:33N 28°08' W 015°25'0 0.0
2017-Jan-11 00:33N 28°08' W 015°25'0 0.0
2017-Jan-10 23:33N 28°08' W 015°25'0 0.0
2017-Jan-10 22:33N 28°08' W 015°25'0 0.0
2017-Jan-10 21:33N 28°08' W 015°25'  
Track history (hours):
 
Tides and Currents Weather Stations Pressure Air Temp Water Temp Dewpoint Dewpoint Depression Visibility Wind Speed Wind Dir Waves Ship Positions

Volcan De Tamasite

Last reported at 2017-Jan-20 21:28 UTC. Time now 2017-Jan-21 00:14 UTC.
Position N 28°22' W 015°53'.

Length 141 m; draft 5.4 m.

Type: Passenger vessel. MMSI: 224093000.

Date/timePositionNaut miles runAvg speedWind from/ knotsBaromVisibWave heightAir tempDewpointWater temp
2017-Jan-20 21:28N 28°22' W 015°53'1819.9
2017-Jan-20 20:33N 28°15' W 015°34'1110.7
2017-Jan-20 19:33N 28°10' W 015°24'4 3.9
2017-Jan-20 18:33N 28°08' W 015°20'2020.4
2017-Jan-20 17:33N 28°05' W 014°57'2120.7
2017-Jan-20 16:33N 28°02' W 014°34'1110.5
2017-Jan-20 15:33N 28°03' W 014°22'0 0.0
2017-Jan-20 14:29N 28°03' W 014°22'0 0.2
2017-Jan-20 13:30N 28°03' W 014°22'1819.1
2017-Jan-20 12:33N 28°03' W 014°43'2120.7
2017-Jan-20 11:33N 28°06' W 015°06'1616.3
2017-Jan-20 10:33N 28°10' W 015°24'7 7.4
2017-Jan-20 09:33N 28°14' W 015°31'2121.1
2017-Jan-20 08:33N 28°22' W 015°53'20 2.2
2017-Jan-19 23:11N 28°28' W 016°15'2716.6
2017-Jan-19 21:33N 28°19' W 015°46'2019.8
2017-Jan-19 20:33N 28°12' W 015°25'2 2.4
2017-Jan-19 19:33N 28°10' W 015°24'3 2.6
2017-Jan-19 18:33N 28°12' W 015°25'2120.8
2017-Jan-19 17:33N 28°19' W 015°47'2220.7
2017-Jan-19 16:30N 28°27' W 016°10'24 8.0
2017-Jan-19 13:33N 28°20' W 015°45'2020.0
2017-Jan-19 12:33N 28°17' W 015°22'8 7.7
2017-Jan-19 11:34N 28°10' W 015°24'0 0.1
2017-Jan-19 10:34N 28°09' W 015°24'1010.0
2017-Jan-19 09:33N 28°18' W 015°31'2121.1
2017-Jan-19 08:33N 28°23' W 015°54'19 1.9
2017-Jan-18 22:32N 28°29' W 016°14'2319.0
2017-Jan-18 21:18N 28°20' W 015°50'1520.1
2017-Jan-18 20:33N 28°15' W 015°34'1010.1
2017-Jan-18 19:33N 28°10' W 015°24'3 2.8
2017-Jan-18 18:34N 28°08' W 015°21'2120.7
2017-Jan-18 17:34N 28°05' W 014°58'2121.0
2017-Jan-18 16:33N 28°02' W 014°34'1110.7
2017-Jan-18 15:31N 28°03' W 014°22'0 0.0
2017-Jan-18 14:32N 28°03' W 014°22'0 0.0
2017-Jan-18 13:21N 28°03' W 014°22'0 0.0
2017-Jan-18 12:29N 28°03' W 014°22'0 0.0
2017-Jan-18 11:33N 28°03' W 014°22'7 6.2
2017-Jan-18 10:26N 28°02' W 014°29'0 0.0
2017-Jan-17 16:21N 28°02' W 014°29'7 8.5
2017-Jan-17 15:33N 28°03' W 014°22'0 0.0
2017-Jan-17 14:33N 28°03' W 014°22'0 0.0
2017-Jan-17 13:33N 28°03' W 014°22'0 0.0
2017-Jan-17 12:33N 28°03' W 014°22'0 0.0
2017-Jan-17 11:33N 28°03' W 014°22'8 7.4
2017-Jan-17 10:26N 28°01' W 014°31'1820.3
2017-Jan-17 09:33N 28°04' W 014°51'2020.3
2017-Jan-17 08:33N 28°06' W 015°14'10 9.9
2017-Jan-17 07:33N 28°08' W 015°25'0 0.0
2017-Jan-17 06:33N 28°08' W 015°25'0 0.0
2017-Jan-17 05:33N 28°08' W 015°25'0 0.0
2017-Jan-17 04:33N 28°08' W 015°25'0 0.0
2017-Jan-17 03:33N 28°08' W 015°25'0 0.0
2017-Jan-17 02:33N 28°08' W 015°25'0 0.0
2017-Jan-17 01:33N 28°08' W 015°25'0 0.0
2017-Jan-17 00:33N 28°08' W 015°25'0 0.0
2017-Jan-16 23:33N 28°08' W 015°25'0 0.0
2017-Jan-16 22:33N 28°08' W 015°25'0 0.0
2017-Jan-16 21:33N 28°08' W 015°25'0 0.0
2017-Jan-16 20:33N 28°08' W 015°25'0 0.0
2017-Jan-16 19:33N 28°08' W 015°25'3 3.2
2017-Jan-16 18:33N 28°07' W 015°22'2121.0
2017-Jan-16 17:33N 28°05' W 014°58'2120.9
2017-Jan-16 16:33N 28°02' W 014°34'1111.2
2017-Jan-16 15:33N 28°03' W 014°22'0 0.0
2017-Jan-16 14:32N 28°03' W 014°22'0 0.0
2017-Jan-16 13:20N 28°03' W 014°22'0 0.0
2017-Jan-16 11:29N 28°03' W 014°22'10 9.9
2017-Jan-16 10:28N 28°02' W 014°33'1820.2
2017-Jan-16 09:33N 28°04' W 014°54'2019.9
2017-Jan-16 08:33N 28°06' W 015°16'8 7.9
2017-Jan-16 07:33N 28°08' W 015°25'0 0.0
2017-Jan-16 06:33N 28°08' W 015°25'0 0.0
2017-Jan-16 05:33N 28°08' W 015°25'0 0.0
2017-Jan-16 04:33N 28°08' W 015°25'0 0.0
2017-Jan-16 03:33N 28°08' W 015°25'0 0.0
2017-Jan-16 02:33N 28°08' W 015°25'0 0.0
2017-Jan-16 01:33N 28°08' W 015°25'0 0.0
2017-Jan-16 00:33N 28°08' W 015°25'0 0.0
2017-Jan-15 23:33N 28°08' W 015°25'0 0.0
2017-Jan-15 22:33N 28°08' W 015°25'0 0.0
2017-Jan-15 21:33N 28°08' W 015°25'1414.2
2017-Jan-15 20:33N 28°05' W 015°09'2120.7
2017-Jan-15 19:33N 28°03' W 014°46'2020.5
2017-Jan-15 18:33N 28°03' W 014°23'1 0.7
2017-Jan-15 17:30N 28°03' W 014°22'8 8.3
2017-Jan-15 16:30N 28°02' W 014°31'1920.3
2017-Jan-15 15:33N 28°04' W 014°53'2019.9
2017-Jan-15 14:33N 28°06' W 015°15'9 8.8
2017-Jan-15 13:33N 28°08' W 015°25'0 0.0
2017-Jan-15 12:34N 28°08' W 015°25'0 0.0
2017-Jan-15 11:33N 28°08' W 015°25'2 1.8
2017-Jan-15 10:33N 28°09' W 015°23'1919.3
2017-Jan-15 09:34N 28°18' W 015°43'2020.0
2017-Jan-15 08:34N 28°25' W 016°04'16 1.4
2017-Jan-14 21:17N 28°19' W 015°47'1520.6
2017-Jan-14 20:33N 28°14' W 015°31'8 7.9
2017-Jan-14 19:33N 28°10' W 015°24'2 2.2
2017-Jan-14 18:33N 28°08' W 015°22'2121.4
2017-Jan-14 17:33N 28°05' W 014°58'2121.0
2017-Jan-14 16:33N 28°02' W 014°34'1110.9
2017-Jan-14 15:32N 28°03' W 014°22'0 0.0
2017-Jan-14 14:33N 28°03' W 014°22'8 6.7
2017-Jan-14 13:23N 28°02' W 014°31'1720.3
2017-Jan-14 12:33N 28°04' W 014°49'2020.2
2017-Jan-14 11:33N 28°07' W 015°12'1110.7
2017-Jan-14 10:33N 28°10' W 015°24'1312.9
2017-Jan-14 09:33N 28°16' W 015°37'2120.6
2017-Jan-14 08:33N 28°23' W 015°58'1514.6
2017-Jan-14 07:32N 28°28' W 016°15'0 0.0
2017-Jan-14 05:03N 28°28' W 016°15'0 0.0
2017-Jan-14 04:24N 28°28' W 016°15'0 0.0
2017-Jan-14 03:28N 28°28' W 016°15'0 0.0
2017-Jan-13 23:33N 28°28' W 016°15'21 9.5
2017-Jan-13 21:20N 28°21' W 015°52'1620.5
2017-Jan-13 20:33N 28°15' W 015°35'1211.6
2017-Jan-13 19:33N 28°10' W 015°24'3 2.7
2017-Jan-13 18:33N 28°08' W 015°21'2120.9
2017-Jan-13 17:33N 28°05' W 014°58'2120.7
2017-Jan-13 16:33N 28°02' W 014°35'1111.2
2017-Jan-13 15:33N 28°03' W 014°22'0 0.0
2017-Jan-13 14:25N 28°03' W 014°22'8 7.3
2017-Jan-13 13:22N 28°02' W 014°30'1620.4
2017-Jan-13 12:34N 28°04' W 014°49'2019.9
2017-Jan-13 11:34N 28°07' W 015°11'1211.5
2017-Jan-13 10:33N 28°10' W 015°24'8 8.2
2017-Jan-13 09:34N 28°14' W 015°32'2020.2
2017-Jan-13 08:33N 28°22' W 015°53'5 0.5
2017-Jan-12 21:34N 28°20' W 015°47'2020.0
2017-Jan-12 20:34N 28°12' W 015°26'4 3.5
2017-Jan-12 19:33N 28°10' W 015°24'1 1.1
2017-Jan-12 18:33N 28°11' W 015°24'1919.5
2017-Jan-12 17:33N 28°18' W 015°44'2020.0
2017-Jan-12 16:33N 28°26' W 016°05'9 6.3
2017-Jan-12 15:08N 28°28' W 016°15'4813.3
2017-Jan-12 11:30N 28°10' W 015°24'0 0.0
2017-Jan-12 10:33N 28°10' W 015°24'8 8.0
2017-Jan-12 09:33N 28°14' W 015°31'2020.3
2017-Jan-12 08:33N 28°21' W 015°53'2020.0
2017-Jan-12 07:33N 28°29' W 016°14'1 0.8
2017-Jan-12 06:29N 28°28' W 016°15'0 0.0
2017-Jan-12 05:30N 28°28' W 016°15'0 0.0
2017-Jan-12 04:29N 28°28' W 016°15'0 0.0
2017-Jan-12 02:24N 28°28' W 016°15'0 0.0
2017-Jan-12 01:21N 28°28' W 016°15'0 0.0
2017-Jan-12 00:26N 28°28' W 016°15'0 0.0
2017-Jan-11 23:32N 28°28' W 016°15'20 9.8
2017-Jan-11 21:28N 28°21' W 015°53'1820.0
2017-Jan-11 20:34N 28°15' W 015°34'1010.3
2017-Jan-11 19:33N 28°10' W 015°24'3 3.4
2017-Jan-11 18:33N 28°08' W 015°20'2120.8
2017-Jan-11 17:33N 28°05' W 014°57'2020.3
2017-Jan-11 16:33N 28°02' W 014°34'1110.9
2017-Jan-11 15:32N 28°03' W 014°22'0 0.0
2017-Jan-11 14:31N 28°03' W 014°22'0 0.0
2017-Jan-11 13:33N 28°03' W 014°22'0 0.0
2017-Jan-11 12:30N 28°03' W 014°22'0 0.0
2017-Jan-11 11:31N 28°03' W 014°22'8 8.1
2017-Jan-11 10:33N 28°02' W 014°31'2019.7
2017-Jan-11 09:33N 28°04' W 014°53'2019.9
2017-Jan-11 08:33N 28°06' W 015°15'9 8.8
2017-Jan-11 07:33N 28°08' W 015°25'0 0.0
2017-Jan-11 06:33N 28°08' W 015°25'0 0.0
2017-Jan-11 05:33N 28°08' W 015°25'0 0.0
2017-Jan-11 04:33N 28°08' W 015°25'0 0.0
2017-Jan-11 03:33N 28°08' W 015°25'0 0.0
2017-Jan-11 02:33N 28°08' W 015°25'0 0.0
2017-Jan-11 01:33N 28°08' W 015°25'0 0.0
2017-Jan-11 00:33N 28°08' W 015°25'0 0.0
2017-Jan-10 23:33N 28°08' W 015°25'0 0.0
2017-Jan-10 22:33N 28°08' W 015°25'0 0.0
2017-Jan-10 21:33N 28°08' W 015°25'  

Dump ship's entire track history